createdAt,value
2018-03-19T00:00:19.609Z,946.99
2018-03-19T00:01:19.537Z,947.04
2018-03-19T00:02:19.515Z,947.04
2018-03-19T00:03:19.491Z,947
2018-03-19T00:04:19.469Z,946.98
2018-03-19T00:05:19.445Z,947.01
2018-03-19T00:06:19.423Z,947.05
2018-03-19T00:07:19.398Z,947.01
2018-03-19T00:08:19.377Z,947.04
2018-03-19T00:09:19.356Z,947.05
2018-03-19T00:10:19.331Z,947.04
2018-03-19T00:11:19.308Z,947.06
2018-03-19T00:12:19.285Z,947.05
2018-03-19T00:13:19.263Z,947.06
2018-03-19T00:14:19.239Z,947.03
2018-03-19T00:15:19.217Z,946.97
2018-03-19T00:16:19.193Z,946.95
2018-03-19T00:17:19.172Z,947.03
2018-03-19T00:18:19.154Z,947.02
2018-03-19T00:19:19.130Z,946.98
2018-03-19T00:20:19.101Z,947
2018-03-19T00:21:19.078Z,947.07
2018-03-19T00:22:19.058Z,947.02
2018-03-19T00:23:19.032Z,947.05
2018-03-19T00:24:19.010Z,947.05
2018-03-19T00:25:18.991Z,947
2018-03-19T00:26:18.963Z,946.99
2018-03-19T00:27:18.941Z,947
2018-03-19T00:28:18.919Z,946.98
2018-03-19T00:29:18.894Z,947
2018-03-19T00:30:18.871Z,946.97
2018-03-19T00:31:18.848Z,946.98
2018-03-19T00:32:18.826Z,946.97
2018-03-19T00:33:18.802Z,946.91
2018-03-19T00:34:18.779Z,946.95
2018-03-19T00:35:18.756Z,946.98
2018-03-19T00:36:18.732Z,946.96
2018-03-19T00:37:18.710Z,946.96
2018-03-19T00:38:18.690Z,946.97
2018-03-19T00:39:18.665Z,946.94
2018-03-19T00:40:18.644Z,946.91
2018-03-19T00:41:18.617Z,946.96
2018-03-19T00:42:18.596Z,947
2018-03-19T00:43:18.572Z,946.92
2018-03-19T00:44:18.548Z,946.94
2018-03-19T00:45:18.526Z,946.93
2018-03-19T00:46:18.502Z,946.89
2018-03-19T00:47:18.478Z,946.94
2018-03-19T00:48:18.455Z,946.88
2018-03-19T00:49:18.433Z,946.87
2018-03-19T00:50:18.409Z,946.91
2018-03-19T00:51:18.385Z,946.92
2018-03-19T00:52:18.364Z,946.9
2018-03-19T00:53:18.340Z,946.86
2018-03-19T00:54:18.317Z,946.86
2018-03-19T00:55:18.293Z,946.83
2018-03-19T00:56:18.269Z,946.85
2018-03-19T00:57:18.247Z,946.83
2018-03-19T00:58:18.223Z,946.86
2018-03-19T00:59:18.201Z,946.86
2018-03-19T01:00:18.179Z,946.78
2018-03-19T01:01:18.156Z,946.77
2018-03-19T01:02:18.131Z,946.83
2018-03-19T01:03:18.109Z,946.83
2018-03-19T01:04:18.151Z,946.79
2018-03-19T01:05:18.069Z,946.82
2018-03-19T01:06:18.041Z,946.78
2018-03-19T01:07:18.015Z,946.77
2018-03-19T01:08:17.993Z,946.75
2018-03-19T01:09:17.969Z,946.8
2018-03-19T01:10:17.945Z,946.76
2018-03-19T01:11:17.922Z,946.74
2018-03-19T01:12:17.897Z,946.74
2018-03-19T01:13:17.875Z,946.73
2018-03-19T01:14:17.856Z,946.7
2018-03-19T01:15:17.829Z,946.71
2018-03-19T01:16:17.806Z,946.76
2018-03-19T01:17:17.783Z,946.67
2018-03-19T01:18:17.759Z,946.65
2018-03-19T01:19:17.736Z,946.68
2018-03-19T01:20:17.713Z,946.65
2018-03-19T01:21:17.690Z,946.67
2018-03-19T01:22:17.667Z,946.66
2018-03-19T01:23:17.643Z,946.67
2018-03-19T01:24:17.622Z,946.64
2018-03-19T01:25:17.597Z,946.67
2018-03-19T01:26:17.574Z,946.64
2018-03-19T01:27:17.552Z,946.59
2018-03-19T01:28:17.527Z,946.56
2018-03-19T01:29:17.503Z,946.55
2018-03-19T01:30:17.480Z,946.59
2018-03-19T01:31:17.456Z,946.57
2018-03-19T01:32:17.435Z,946.58
2018-03-19T01:33:17.410Z,946.55
2018-03-19T01:34:17.387Z,946.54
2018-03-19T01:35:17.362Z,946.59
2018-03-19T01:36:17.339Z,946.54
2018-03-19T01:37:17.317Z,946.55
2018-03-19T01:38:17.293Z,946.55
2018-03-19T01:39:17.267Z,946.52
2018-03-19T01:40:17.245Z,946.49
2018-03-19T01:41:17.224Z,946.56
2018-03-19T01:42:17.198Z,946.54
2018-03-19T01:43:17.175Z,946.5
2018-03-19T01:44:17.151Z,946.57
2018-03-19T01:45:17.129Z,946.59
2018-03-19T01:46:17.105Z,946.54
2018-03-19T01:47:17.081Z,946.55
2018-03-19T01:48:17.058Z,946.53
2018-03-19T01:49:17.032Z,946.51
2018-03-19T01:50:17.017Z,946.52
2018-03-19T01:51:16.988Z,946.56
2018-03-19T01:52:16.963Z,946.56
2018-03-19T01:53:16.938Z,946.59
2018-03-19T01:54:16.914Z,946.55
2018-03-19T01:55:16.893Z,946.53
2018-03-19T01:56:16.872Z,946.53
2018-03-19T01:57:16.844Z,946.56
2018-03-19T01:58:16.837Z,946.57
2018-03-19T01:59:16.798Z,946.54
2018-03-19T02:00:16.773Z,946.58
2018-03-19T02:01:16.750Z,946.59
2018-03-19T02:02:16.727Z,946.58
2018-03-19T02:03:16.705Z,946.58
2018-03-19T02:04:16.681Z,946.57
2018-03-19T02:05:16.657Z,946.6
2018-03-19T02:06:16.634Z,946.6
2018-03-19T02:07:16.609Z,946.53
2018-03-19T02:08:16.588Z,946.59
2018-03-19T02:09:16.564Z,946.57
2018-03-19T02:10:16.538Z,946.56
2018-03-19T02:11:16.522Z,946.55
2018-03-19T02:12:16.493Z,946.55
2018-03-19T02:13:16.468Z,946.57
2018-03-19T02:14:16.445Z,946.55
2018-03-19T02:15:16.422Z,946.51
2018-03-19T02:16:16.399Z,946.5
2018-03-19T02:17:16.373Z,946.5
2018-03-19T02:18:16.356Z,946.52
2018-03-19T02:19:16.325Z,946.48
2018-03-19T02:20:16.304Z,946.48
2018-03-19T02:21:16.279Z,946.47
2018-03-19T02:22:16.256Z,946.5
2018-03-19T02:23:16.232Z,946.46
2018-03-19T02:24:16.208Z,946.44
2018-03-19T02:25:16.189Z,946.4
2018-03-19T02:26:16.160Z,946.45
2018-03-19T02:27:16.141Z,946.45
2018-03-19T02:28:16.113Z,946.42
2018-03-19T02:29:16.091Z,946.43
2018-03-19T02:30:16.066Z,946.46
2018-03-19T02:31:16.043Z,946.4
2018-03-19T02:32:16.022Z,946.42
2018-03-19T02:33:15.995Z,946.38
2018-03-19T02:34:15.971Z,946.41
2018-03-19T02:35:15.948Z,946.4
2018-03-19T02:36:15.925Z,946.39
2018-03-19T02:37:15.902Z,946.38
2018-03-19T02:38:15.878Z,946.38
2018-03-19T02:39:15.854Z,946.4
2018-03-19T02:40:15.830Z,946.4
2018-03-19T02:41:15.806Z,946.41
2018-03-19T02:42:15.780Z,946.38
2018-03-19T02:43:15.764Z,946.37
2018-03-19T02:44:15.735Z,946.36
2018-03-19T02:45:15.711Z,946.39
2018-03-19T02:46:15.688Z,946.38
2018-03-19T02:47:15.666Z,946.39
2018-03-19T02:48:15.639Z,946.42
2018-03-19T02:49:15.615Z,946.43
2018-03-19T02:50:15.592Z,946.4
2018-03-19T02:51:15.568Z,946.4
2018-03-19T02:52:15.546Z,946.4
2018-03-19T02:53:15.522Z,946.44
2018-03-19T02:54:15.500Z,946.49
2018-03-19T02:55:15.473Z,946.48
2018-03-19T02:56:15.452Z,946.53
2018-03-19T02:57:15.427Z,946.53
2018-03-19T02:58:15.405Z,946.47
2018-03-19T02:59:15.379Z,946.49
2018-03-19T03:00:15.365Z,946.52
2018-03-19T03:01:15.332Z,946.52
2018-03-19T03:02:15.311Z,946.45
2018-03-19T03:03:15.284Z,946.49
2018-03-19T03:04:15.310Z,946.44
2018-03-19T03:05:15.235Z,946.48
2018-03-19T03:06:15.213Z,946.46
2018-03-19T03:07:15.188Z,946.45
2018-03-19T03:08:15.164Z,946.51
2018-03-19T03:09:15.140Z,946.49
2018-03-19T03:10:15.116Z,946.5
2018-03-19T03:11:15.092Z,946.52
2018-03-19T03:12:15.069Z,946.5
2018-03-19T03:13:15.044Z,946.48
2018-03-19T03:14:15.022Z,946.51
2018-03-19T03:15:15.002Z,946.47
2018-03-19T03:16:14.973Z,946.46
2018-03-19T03:17:14.949Z,946.51
2018-03-19T03:18:14.929Z,946.5
2018-03-19T03:19:14.902Z,946.48
2018-03-19T03:20:14.879Z,946.47
2018-03-19T03:21:14.852Z,946.5
2018-03-19T03:22:14.830Z,946.48
2018-03-19T03:23:14.805Z,946.56
2018-03-19T03:24:14.782Z,946.55
2018-03-19T03:25:14.757Z,946.6
2018-03-19T03:26:14.734Z,946.52
2018-03-19T03:27:14.711Z,946.59
2018-03-19T03:28:14.684Z,946.6
2018-03-19T03:29:14.663Z,946.6
2018-03-19T03:30:14.640Z,946.6
2018-03-19T03:31:14.614Z,946.6
2018-03-19T03:32:14.590Z,946.58
2018-03-19T03:33:14.566Z,946.58
2018-03-19T03:34:14.543Z,946.55
2018-03-19T03:35:14.521Z,946.57
2018-03-19T03:36:14.495Z,946.56
2018-03-19T03:37:14.469Z,946.54
2018-03-19T03:38:14.447Z,946.57
2018-03-19T03:39:14.420Z,946.57
2018-03-19T03:40:14.398Z,946.54
2018-03-19T03:41:14.374Z,946.6
2018-03-19T03:42:14.350Z,946.58
2018-03-19T03:43:14.325Z,946.56
2018-03-19T03:44:14.303Z,946.55
2018-03-19T03:45:14.278Z,946.55
2018-03-19T03:46:14.252Z,946.57
2018-03-19T03:47:14.231Z,946.59
2018-03-19T03:48:14.206Z,946.54
2018-03-19T03:49:14.183Z,946.49
2018-03-19T03:50:14.162Z,946.53
2018-03-19T03:51:14.136Z,946.55
2018-03-19T03:52:14.109Z,946.54
2018-03-19T03:53:14.089Z,946.52
2018-03-19T03:54:14.062Z,946.54
2018-03-19T03:55:14.037Z,946.6
2018-03-19T03:56:14.013Z,946.53
2018-03-19T03:57:13.989Z,946.59
2018-03-19T03:58:13.966Z,946.55
2018-03-19T03:59:13.941Z,946.58
2018-03-19T04:00:13.922Z,946.52
2018-03-19T04:01:13.893Z,946.54
2018-03-19T04:02:13.869Z,946.56
2018-03-19T04:03:13.844Z,946.57
2018-03-19T04:04:13.821Z,946.58
2018-03-19T04:05:13.796Z,946.55
2018-03-19T04:06:13.773Z,946.61
2018-03-19T04:07:13.749Z,946.6
2018-03-19T04:08:13.723Z,946.59
2018-03-19T04:09:13.700Z,946.55
2018-03-19T04:10:13.675Z,946.58
2018-03-19T04:11:13.651Z,946.61
2018-03-19T04:12:13.626Z,946.61
2018-03-19T04:13:13.603Z,946.51
2018-03-19T04:14:13.580Z,946.52
2018-03-19T04:15:13.554Z,946.55
2018-03-19T04:16:13.530Z,946.59
2018-03-19T04:17:13.507Z,946.58
2018-03-19T04:18:13.482Z,946.52
2018-03-19T04:19:13.457Z,946.57
2018-03-19T04:20:13.439Z,946.52
2018-03-19T04:21:13.409Z,946.53
2018-03-19T04:22:13.384Z,946.54
2018-03-19T04:23:13.361Z,946.56
2018-03-19T04:24:13.345Z,946.56
2018-03-19T04:25:13.312Z,946.56
2018-03-19T04:26:13.288Z,946.53
2018-03-19T04:27:13.266Z,946.56
2018-03-19T04:28:13.241Z,946.52
2018-03-19T04:29:13.217Z,946.52
2018-03-19T04:30:13.193Z,946.61
2018-03-19T04:31:13.169Z,946.54
2018-03-19T04:32:13.145Z,946.58
2018-03-19T04:33:13.121Z,946.56
2018-03-19T04:34:13.097Z,946.55
2018-03-19T04:35:13.071Z,946.55
2018-03-19T04:36:13.046Z,946.64
2018-03-19T04:37:13.021Z,946.62
2018-03-19T04:38:12.997Z,946.61
2018-03-19T04:39:12.975Z,946.61
2018-03-19T04:40:12.949Z,946.58
2018-03-19T04:41:12.926Z,946.53
2018-03-19T04:42:12.900Z,946.59
2018-03-19T04:43:12.876Z,946.57
2018-03-19T04:44:12.854Z,946.52
2018-03-19T04:45:12.828Z,946.58
2018-03-19T04:46:12.805Z,946.57
2018-03-19T04:47:12.780Z,946.59
2018-03-19T04:48:12.754Z,946.6
2018-03-19T04:49:12.733Z,946.58
2018-03-19T04:50:12.706Z,946.62
2018-03-19T04:51:12.686Z,946.62
2018-03-19T04:52:12.658Z,946.6
2018-03-19T04:53:12.634Z,946.61
2018-03-19T04:54:12.608Z,946.6
2018-03-19T04:55:12.586Z,946.64
2018-03-19T04:56:12.559Z,946.62
2018-03-19T04:57:12.534Z,946.6
2018-03-19T04:58:12.512Z,946.61
2018-03-19T04:59:12.485Z,946.64
2018-03-19T05:00:12.461Z,946.61
2018-03-19T05:01:12.437Z,946.62
2018-03-19T05:02:12.417Z,946.61
2018-03-19T05:03:12.389Z,946.65
2018-03-19T05:04:12.364Z,946.67
2018-03-19T05:05:12.344Z,946.66
2018-03-19T05:06:12.317Z,946.7
2018-03-19T05:07:12.292Z,946.72
2018-03-19T05:08:12.267Z,946.71
2018-03-19T05:09:12.245Z,946.72
2018-03-19T05:10:12.218Z,946.71
2018-03-19T05:11:12.201Z,946.68
2018-03-19T05:12:12.170Z,946.68
2018-03-19T05:13:12.147Z,946.71
2018-03-19T05:14:12.121Z,946.68
2018-03-19T05:15:12.097Z,946.72
2018-03-19T05:16:12.073Z,946.72
2018-03-19T05:17:12.052Z,946.76
2018-03-19T05:18:12.023Z,946.76
2018-03-19T05:19:12.000Z,946.74
2018-03-19T05:20:11.976Z,946.77
2018-03-19T05:21:11.948Z,946.79
2018-03-19T05:22:11.925Z,946.76
2018-03-19T05:23:11.901Z,946.75
2018-03-19T05:24:11.877Z,946.75
2018-03-19T05:25:11.853Z,946.74
2018-03-19T05:26:11.829Z,946.73
2018-03-19T05:27:11.807Z,946.76
2018-03-19T05:28:11.778Z,946.74
2018-03-19T05:29:11.755Z,946.7
2018-03-19T05:30:11.731Z,946.75
2018-03-19T05:31:11.706Z,946.72
2018-03-19T05:32:11.681Z,946.78
2018-03-19T05:33:11.681Z,946.79
2018-03-19T05:34:11.632Z,946.77
2018-03-19T05:35:11.607Z,946.73
2018-03-19T05:36:11.583Z,946.75
2018-03-19T05:37:11.559Z,946.81
2018-03-19T05:38:11.534Z,946.8
2018-03-19T05:39:11.510Z,946.79
2018-03-19T05:42:19.697Z,946.81
2018-03-19T05:43:19.671Z,946.79
2018-03-19T05:44:19.647Z,946.81
2018-03-19T05:45:19.621Z,946.75
2018-03-19T05:46:19.597Z,946.76
2018-03-19T05:47:19.572Z,946.78
2018-03-19T05:48:19.556Z,946.79
2018-03-19T05:49:19.522Z,946.74
2018-03-19T05:50:19.499Z,946.77
2018-03-19T05:51:19.476Z,946.76
2018-03-19T05:52:19.450Z,946.75
2018-03-19T05:53:19.426Z,946.73
2018-03-19T05:54:19.402Z,946.73
2018-03-19T05:55:19.377Z,946.74
2018-03-19T05:56:19.352Z,946.71
2018-03-19T05:57:19.329Z,946.72
2018-03-19T05:58:19.305Z,946.71
2018-03-19T05:59:19.280Z,946.76
2018-03-19T06:00:19.258Z,946.77
2018-03-19T06:01:19.232Z,946.73
2018-03-19T06:02:19.208Z,946.74
2018-03-19T06:03:19.183Z,946.71
2018-03-19T06:04:19.159Z,946.72
2018-03-19T06:05:19.134Z,946.72
2018-03-19T06:06:19.110Z,946.71
2018-03-19T06:07:19.085Z,946.75
2018-03-19T06:08:19.061Z,946.73
2018-03-19T06:09:19.038Z,946.74
2018-03-19T06:10:19.014Z,946.78
2018-03-19T06:11:18.988Z,946.78
2018-03-19T06:12:18.964Z,946.78
2018-03-19T06:13:18.941Z,946.77
2018-03-19T06:14:18.916Z,946.76
2018-03-19T06:15:18.890Z,946.79
2018-03-19T06:16:18.867Z,946.77
2018-03-19T06:17:18.843Z,946.81
2018-03-19T06:18:18.820Z,946.79
2018-03-19T06:19:18.794Z,946.78
2018-03-19T06:20:18.771Z,946.8
2018-03-19T06:21:18.747Z,946.81
2018-03-19T06:22:18.723Z,946.78
2018-03-19T06:23:18.698Z,946.83
2018-03-19T06:24:18.678Z,946.85
2018-03-19T06:25:18.650Z,946.87
2018-03-19T06:26:18.625Z,946.84
2018-03-19T06:27:18.602Z,946.82
2018-03-19T06:28:18.580Z,946.8
2018-03-19T06:29:18.554Z,946.9
2018-03-19T06:30:18.530Z,946.85
2018-03-19T06:31:18.508Z,946.86
2018-03-19T06:32:18.485Z,946.87
2018-03-19T06:33:18.463Z,946.83
2018-03-19T06:34:18.438Z,946.87
2018-03-19T06:35:18.412Z,946.88
2018-03-19T06:36:18.387Z,946.9
2018-03-19T06:37:18.365Z,946.93
2018-03-19T06:38:18.342Z,947.01
2018-03-19T06:39:18.316Z,947.02
2018-03-19T06:40:18.295Z,947
2018-03-19T06:41:18.271Z,947.01
2018-03-19T06:42:18.301Z,947.03
2018-03-19T06:43:18.228Z,947.02
2018-03-19T06:44:18.199Z,947.01
2018-03-19T06:45:18.176Z,947.01
2018-03-19T06:46:18.154Z,947.01
2018-03-19T06:47:18.129Z,946.99
2018-03-19T06:48:18.105Z,946.96
2018-03-19T06:49:18.083Z,946.97
2018-03-19T06:50:18.061Z,947.01
2018-03-19T06:51:18.035Z,946.98
2018-03-19T06:52:18.012Z,946.98
2018-03-19T06:53:17.989Z,946.98
2018-03-19T06:54:17.966Z,947.01
2018-03-19T06:55:17.942Z,947.07
2018-03-19T06:56:17.919Z,947.04
2018-03-19T06:57:17.896Z,947.08
2018-03-19T06:58:17.870Z,947.05
2018-03-19T06:59:17.848Z,947.09
2018-03-19T07:00:17.828Z,947.09
2018-03-19T07:01:17.802Z,947.09
2018-03-19T07:02:17.791Z,947.11
2018-03-19T07:03:17.756Z,947.08
2018-03-19T07:04:17.732Z,947.08
2018-03-19T07:05:17.708Z,947.11
2018-03-19T07:06:17.695Z,947.11
2018-03-19T07:07:17.663Z,947.11
2018-03-19T07:08:17.646Z,947.06
2018-03-19T07:09:17.616Z,947.09
2018-03-19T07:10:17.591Z,947.09
2018-03-19T07:11:17.570Z,947.09
2018-03-19T07:12:17.545Z,947.06
2018-03-19T07:13:17.522Z,947.11
2018-03-19T07:14:17.505Z,947.08
2018-03-19T07:15:17.475Z,947.08
2018-03-19T07:16:17.452Z,947.07
2018-03-19T07:17:17.444Z,947.05
2018-03-19T07:18:17.407Z,947.09
2018-03-19T07:19:17.383Z,947.09
2018-03-19T07:20:17.360Z,947.12
2018-03-19T07:21:17.335Z,947.1
2018-03-19T07:22:17.314Z,947.04
2018-03-19T07:23:17.289Z,947.07
2018-03-19T07:24:17.267Z,947.13
2018-03-19T07:25:17.246Z,947.06
2018-03-19T07:26:17.219Z,947.08
2018-03-19T07:27:17.197Z,947.05
2018-03-19T07:28:17.175Z,947.08
2018-03-19T07:29:17.152Z,947.1
2018-03-19T07:30:17.127Z,947.13
2018-03-19T07:31:17.104Z,947.09
2018-03-19T07:32:17.081Z,947.07
2018-03-19T07:33:17.058Z,947.07
2018-03-19T07:34:17.035Z,947.07
2018-03-19T07:35:17.016Z,947.06
2018-03-19T07:36:16.989Z,947.08
2018-03-19T07:37:16.970Z,947.1
2018-03-19T07:38:16.943Z,947.09
2018-03-19T07:39:16.919Z,947.11
2018-03-19T07:40:16.897Z,947.1
2018-03-19T07:41:16.873Z,947.11
2018-03-19T07:42:16.854Z,947.11
2018-03-19T07:43:16.828Z,947.13
2018-03-19T07:44:16.805Z,947.11
2018-03-19T07:45:16.780Z,947.1
2018-03-19T07:46:16.757Z,947.1
2018-03-19T07:47:16.735Z,947.12
2018-03-19T07:48:16.711Z,947.15
2018-03-19T07:49:16.689Z,947.22
2018-03-19T07:50:16.669Z,947.2
2018-03-19T07:51:16.644Z,947.19
2018-03-19T07:52:16.621Z,947.15
2018-03-19T07:53:16.596Z,947.15
2018-03-19T07:54:16.576Z,947.12
2018-03-19T07:55:16.551Z,947.13
2018-03-19T07:56:16.528Z,947.13
2018-03-19T07:57:16.547Z,947.11
2018-03-19T07:58:16.483Z,947.15
2018-03-19T07:59:16.464Z,947.14
2018-03-19T08:00:16.437Z,947.14
2018-03-19T08:01:16.413Z,947.2
2018-03-19T08:02:16.391Z,947.16
2018-03-19T08:03:16.368Z,947.18
2018-03-19T08:04:16.347Z,947.17
2018-03-19T08:05:16.324Z,947.16
2018-03-19T08:06:16.300Z,947.2
2018-03-19T08:07:16.329Z,947.17
2018-03-19T08:08:16.256Z,947.19
2018-03-19T08:09:16.233Z,947.23
2018-03-19T08:10:16.210Z,947.21
2018-03-19T08:11:16.187Z,947.21
2018-03-19T08:12:16.179Z,947.2
2018-03-19T08:13:16.142Z,947.2
2018-03-19T08:14:16.119Z,947.21
2018-03-19T08:15:16.096Z,947.25
2018-03-19T08:16:16.081Z,947.22
2018-03-19T08:17:16.054Z,947.22
2018-03-19T08:18:16.031Z,947.2
2018-03-19T08:19:16.009Z,947.22
2018-03-19T08:20:15.986Z,947.26
2018-03-19T08:21:15.971Z,947.19
2018-03-19T08:22:15.943Z,947.18
2018-03-19T08:23:15.920Z,947.2
2018-03-19T08:24:15.897Z,947.26
2018-03-19T08:25:15.874Z,947.24
2018-03-19T08:26:15.853Z,947.23
2018-03-19T08:27:15.833Z,947.24
2018-03-19T08:28:15.809Z,947.14
2018-03-19T08:29:15.788Z,947.18
2018-03-19T08:30:15.764Z,947.15
2018-03-19T08:31:15.744Z,947.15
2018-03-19T08:32:15.729Z,947.09
2018-03-19T08:33:15.700Z,947.09
2018-03-19T08:34:15.676Z,947.1
2018-03-19T08:35:15.656Z,947.09
2018-03-19T08:36:15.633Z,947.08
2018-03-19T08:37:15.611Z,947.05
2018-03-19T08:38:15.591Z,947.05
2018-03-19T08:39:15.569Z,947.09
2018-03-19T08:40:15.545Z,947.13
2018-03-19T08:41:15.525Z,947.07
2018-03-19T08:42:15.504Z,947.09
2018-03-19T08:43:15.482Z,947.06
2018-03-19T08:44:15.461Z,947.12
2018-03-19T08:45:15.438Z,947.1
2018-03-19T08:46:15.418Z,947.11
2018-03-19T08:47:15.394Z,947.11
2018-03-19T08:48:15.374Z,947.1
2018-03-19T08:49:15.357Z,947.13
2018-03-19T08:50:15.331Z,947.07
2018-03-19T08:51:15.309Z,947.06
2018-03-19T08:52:15.286Z,947
2018-03-19T08:53:15.264Z,947.03
2018-03-19T08:54:15.248Z,946.96
2018-03-19T08:55:15.223Z,947.01
2018-03-19T08:56:15.205Z,946.97
2018-03-19T08:57:15.183Z,946.99
2018-03-19T08:58:15.158Z,946.93
2018-03-19T08:59:15.137Z,946.98
2018-03-19T09:00:15.115Z,946.99
2018-03-19T09:01:15.094Z,946.98
2018-03-19T09:02:15.072Z,946.97
2018-03-19T09:03:15.052Z,946.97
2018-03-19T09:04:15.086Z,946.99
2018-03-19T09:05:15.008Z,946.92
2018-03-19T09:06:14.988Z,946.92
2018-03-19T09:07:14.966Z,946.92
2018-03-19T09:08:14.948Z,946.92
2018-03-19T09:09:14.924Z,946.96
2018-03-19T09:10:14.901Z,946.86
2018-03-19T09:11:14.880Z,946.88
2018-03-19T09:12:14.863Z,946.91
2018-03-19T09:13:14.837Z,946.97
2018-03-19T09:14:14.816Z,946.95
2018-03-19T09:15:14.796Z,946.94
2018-03-19T09:16:14.774Z,946.93
2018-03-19T09:17:14.754Z,947
2018-03-19T09:18:14.730Z,946.99
2018-03-19T09:19:14.710Z,946.92
2018-03-19T09:20:14.689Z,946.92
2018-03-19T09:21:14.668Z,946.93
2018-03-19T09:22:14.645Z,946.93
2018-03-19T09:23:14.626Z,946.93
2018-03-19T09:24:14.606Z,946.88
2018-03-19T09:25:14.627Z,946.87
2018-03-19T09:26:14.565Z,946.86
2018-03-19T09:27:14.543Z,946.89
2018-03-19T09:28:14.519Z,946.91
2018-03-19T09:29:14.500Z,946.91
2018-03-19T09:30:14.531Z,946.96
2018-03-19T09:31:14.462Z,946.93
2018-03-19T09:32:14.436Z,946.97
2018-03-19T09:33:14.415Z,946.94
2018-03-19T09:34:14.395Z,946.94
2018-03-19T09:35:14.383Z,946.95
2018-03-19T09:36:14.354Z,946.93
2018-03-19T09:37:14.334Z,946.91
2018-03-19T09:38:14.315Z,946.9
2018-03-19T09:39:14.292Z,946.95
2018-03-19T09:40:14.270Z,946.9
2018-03-19T09:41:14.251Z,946.91
2018-03-19T09:42:14.231Z,946.92
2018-03-19T09:43:14.209Z,946.89
2018-03-19T09:44:14.187Z,946.91
2018-03-19T09:45:14.169Z,946.91
2018-03-19T09:46:14.147Z,946.93
2018-03-19T09:47:14.124Z,946.98
2018-03-19T09:48:14.153Z,946.9
2018-03-19T09:49:14.083Z,946.91
2018-03-19T09:50:14.063Z,946.93
2018-03-19T09:51:14.042Z,946.99
2018-03-19T09:52:14.022Z,946.91
2018-03-19T09:53:14.008Z,946.98
2018-03-19T09:54:13.982Z,946.96
2018-03-19T09:55:13.960Z,946.97
2018-03-19T09:56:13.940Z,947.02
2018-03-19T09:57:13.920Z,947.07
2018-03-19T09:58:13.910Z,946.99
2018-03-19T09:59:13.877Z,947.06
2018-03-19T10:00:13.858Z,947.02
2018-03-19T10:01:13.837Z,946.96
2018-03-19T10:02:13.815Z,946.96
2018-03-19T10:03:13.794Z,946.97
2018-03-19T10:04:13.776Z,946.95
2018-03-19T10:05:13.753Z,946.97
2018-03-19T10:06:13.733Z,946.93
2018-03-19T10:07:13.711Z,947.07
2018-03-19T10:08:13.691Z,947.02
2018-03-19T10:09:13.677Z,946.98
2018-03-19T10:10:13.676Z,947
2018-03-19T10:11:13.632Z,947.06
2018-03-19T10:12:13.609Z,947.05
2018-03-19T10:13:13.589Z,946.98
2018-03-19T10:14:13.576Z,947.02
2018-03-19T10:15:13.546Z,947.02
2018-03-19T10:16:13.556Z,947.01
2018-03-19T10:17:13.504Z,947
2018-03-19T10:18:13.485Z,947.03
2018-03-19T10:19:13.463Z,947
2018-03-19T10:20:13.442Z,947
2018-03-19T10:21:13.422Z,947.01
2018-03-19T10:22:13.401Z,946.96
2018-03-19T10:23:13.382Z,946.97
2018-03-19T10:24:13.362Z,946.98
2018-03-19T10:25:13.339Z,946.98
2018-03-19T10:26:13.320Z,946.98
2018-03-19T10:27:13.297Z,946.98
2018-03-19T10:28:13.279Z,947.03
2018-03-19T10:29:13.259Z,947.05
2018-03-19T10:30:13.238Z,946.99
2018-03-19T10:31:13.214Z,947
2018-03-19T10:32:13.196Z,946.98
2018-03-19T10:33:13.177Z,946.93
2018-03-19T10:34:13.161Z,946.98
2018-03-19T10:35:13.134Z,947.04
2018-03-19T10:36:13.113Z,946.98
2018-03-19T10:37:13.092Z,946.99
2018-03-19T10:38:13.072Z,946.97
2018-03-19T10:39:13.052Z,947.06
2018-03-19T10:40:13.032Z,947.02
2018-03-19T10:41:13.010Z,947
2018-03-19T10:42:12.988Z,946.99
2018-03-19T10:43:12.969Z,947
2018-03-19T10:44:12.949Z,946.97
2018-03-19T10:45:12.927Z,946.99
2018-03-19T10:46:12.907Z,947.02
2018-03-19T10:47:12.888Z,947.04
2018-03-19T10:48:12.866Z,947.05
2018-03-19T10:49:12.845Z,947.01
2018-03-19T10:50:12.834Z,946.95
2018-03-19T10:51:12.805Z,947
2018-03-19T10:52:12.784Z,947.02
2018-03-19T10:53:12.764Z,947.02
2018-03-19T10:54:12.743Z,947.05
2018-03-19T10:55:12.722Z,947.01
2018-03-19T10:56:12.702Z,946.95
2018-03-19T10:57:12.682Z,946.98
2018-03-19T10:58:12.662Z,946.92
2018-03-19T10:59:12.639Z,946.98
2018-03-19T11:00:12.619Z,946.99
2018-03-19T11:01:12.657Z,946.93
2018-03-19T11:02:12.578Z,946.88
2018-03-19T11:03:12.557Z,946.92
2018-03-19T11:04:12.539Z,946.89
2018-03-19T11:05:12.519Z,946.93
2018-03-19T11:06:12.496Z,946.91
2018-03-19T11:07:12.476Z,946.87
2018-03-19T11:08:12.457Z,946.87
2018-03-19T11:09:12.435Z,946.88
2018-03-19T11:10:12.414Z,946.89
2018-03-19T11:11:12.394Z,946.85
2018-03-19T11:12:12.475Z,946.91
2018-03-19T11:13:12.353Z,946.92
2018-03-19T11:14:12.335Z,946.89
2018-03-19T11:15:12.313Z,946.87
2018-03-19T11:16:12.294Z,946.9
2018-03-19T11:17:12.277Z,946.77
2018-03-19T11:18:12.253Z,946.88
2018-03-19T11:19:12.233Z,946.88
2018-03-19T11:20:12.214Z,946.82
2018-03-19T11:21:12.192Z,946.8
2018-03-19T11:22:12.170Z,946.85
2018-03-19T11:23:12.150Z,946.76
2018-03-19T11:24:12.130Z,946.75
2018-03-19T11:25:12.116Z,946.84
2018-03-19T11:26:12.089Z,946.79
2018-03-19T11:27:12.068Z,946.8
2018-03-19T11:28:12.048Z,946.77
2018-03-19T11:29:12.029Z,946.8
2018-03-19T11:30:12.011Z,946.76
2018-03-19T11:31:11.988Z,946.73
2018-03-19T11:32:11.966Z,946.75
2018-03-19T11:33:11.952Z,946.72
2018-03-19T11:34:11.926Z,946.8
2018-03-19T11:35:11.904Z,946.78
2018-03-19T11:36:11.885Z,946.73
2018-03-19T11:37:11.867Z,946.75
2018-03-19T11:38:11.846Z,946.7
2018-03-19T11:39:11.824Z,946.7
2018-03-19T11:40:11.804Z,946.78
2018-03-19T11:41:11.784Z,946.73
2018-03-19T11:42:11.780Z,946.71
2018-03-19T11:43:11.744Z,946.72
2018-03-19T11:44:11.734Z,946.69
2018-03-19T11:45:11.704Z,946.71
2018-03-19T11:46:11.682Z,946.69
2018-03-19T11:47:11.735Z,946.7
2018-03-19T11:48:11.642Z,946.71
2018-03-19T11:49:11.624Z,946.69
2018-03-19T11:50:11.603Z,946.67
2018-03-19T11:51:11.584Z,946.7
2018-03-19T11:52:11.563Z,946.72
2018-03-19T11:53:11.549Z,946.73
2018-03-19T11:54:11.523Z,946.73
2018-03-19T11:55:11.502Z,946.65
2018-03-19T11:56:11.482Z,946.66
2018-03-19T11:57:11.462Z,946.68
2018-03-19T11:58:11.442Z,946.66
2018-03-19T11:59:11.422Z,946.64
2018-03-19T12:00:11.406Z,946.67
2018-03-19T12:01:11.380Z,946.68
2018-03-19T12:02:11.361Z,946.7
2018-03-19T12:03:11.342Z,946.69
2018-03-19T12:04:11.321Z,946.67
2018-03-19T12:05:11.300Z,946.71
2018-03-19T12:06:11.279Z,946.69
2018-03-19T12:07:11.266Z,946.68
2018-03-19T12:08:11.239Z,946.63
2018-03-19T12:09:11.225Z,946.66
2018-03-19T12:10:11.198Z,946.62
2018-03-19T12:11:11.179Z,946.64
2018-03-19T12:12:11.158Z,946.67
2018-03-19T12:13:11.138Z,946.64
2018-03-19T12:14:11.119Z,946.64
2018-03-19T12:15:11.102Z,946.6
2018-03-19T12:16:11.076Z,946.59
2018-03-19T12:17:11.065Z,946.57
2018-03-19T12:18:11.038Z,946.58
2018-03-19T12:19:11.017Z,946.56
2018-03-19T12:20:11.004Z,946.56
2018-03-19T12:21:10.979Z,946.58
2018-03-19T12:22:10.959Z,946.48
2018-03-19T12:23:10.937Z,946.48
2018-03-19T12:24:10.916Z,946.47
2018-03-19T12:25:10.898Z,946.51
2018-03-19T12:26:10.877Z,946.49
2018-03-19T12:27:10.857Z,946.49
2018-03-19T12:28:10.838Z,946.54
2018-03-19T12:29:10.817Z,946.57
2018-03-19T12:30:10.796Z,946.51
2018-03-19T12:31:10.777Z,946.53
2018-03-19T12:32:10.757Z,946.47
2018-03-19T12:33:10.735Z,946.47
2018-03-19T12:34:10.716Z,946.45